Capitol Logistics 366


KIAD
Washington Dulles International Airport
Dulles, Virginia, US
CYYZ
Lester B. Pearson International Airport
Toronto, , CA

Activity Log

Date Flight Route Aircraft Duration
03/26/2020 CPX366 JERES2 JERES J220 MICAH J61 PSB J60 MIDST OXMAN VERKO9 B763 1h 27m
03/01/2020 CPX366 JERES2 JERES J220 MICAH J61 PSB J60 MIDST OXMAN VERKO9 B763 1h 18m
11/04/2019 CPX366 JERES2 JERES J220 MICAH J61 PSB J60 MIDST OXMAN LINNG2 B763 1h 17m
06/18/2019 CPX366 JERES2 JERES J220 SFK WOZEE LINNG9 B763 1h 09m

Route Details

Aircraft Information
Primary: Boeing 767-300BDSF
Backup: Not Available
Route Data
Distance: 301nm
Sched. Duration: 1h 24m
Avg. Duration: 1h 18m (-6m)
Times Flown: 4
Recm'd Route: JERES2 JERES J220 SFK WOZEE LINNG9
Planned Altitude: 34,000ft
Origin Wx: KIAD 290352Z 16007KT 10SM BKN010 OVC016 24/22 A3003 RMK AO2 SLP165 T02390217
Dest. Wx: CYYZ 290400Z 15005KT 6SM BR BKN140 BKN220 18/18 A2984 RMK AC6CI1 SLP105 DENSITY ALT 1200FT
Notes:

Financial History
Total Freight: 261,702lbs
Average Load: 65,426lbs/flt
Fuel Used: 50,443lbs
Avg. Fuel Used: 12,611lbs/flt
Fuel Expense: $65,851
Avg. Fuel Expense: $16,463
Avg. Fuel Cost: $1.31/lbs
Total Gross Income: $353,951
Pilot Pay: $816
Total Expenses: $38,435
Total Revenue: $248,359
Average Revenue: $88,487.72